createdAt,value
2018-04-06T00:01:30.288Z,5.05
2018-04-06T00:03:58.319Z,5.18
2018-04-06T00:06:26.355Z,5.03
2018-04-06T00:08:54.445Z,5.90
2018-04-06T00:11:22.485Z,5.18
2018-04-06T00:13:50.480Z,5.00
2018-04-06T00:16:18.515Z,6.00
2018-04-06T00:18:46.515Z,5.95
2018-04-06T00:21:14.565Z,4.70
2018-04-06T00:23:42.585Z,4.47
2018-04-06T00:26:10.607Z,4.70
2018-04-06T00:28:38.617Z,5.12
2018-04-06T00:31:07.416Z,4.82
2018-04-06T00:33:35.476Z,6.15
2018-04-06T00:36:03.493Z,4.62
2018-04-06T00:38:31.542Z,5.68
2018-04-06T00:40:59.579Z,4.80
2018-04-06T00:43:27.587Z,5.37
2018-04-06T00:45:55.651Z,6.12
2018-04-06T00:48:24.429Z,4.03
2018-04-06T00:50:52.454Z,5.72
2018-04-06T00:53:20.517Z,5.30
2018-04-06T00:55:48.505Z,4.90
2018-04-06T00:58:16.531Z,5.35
2018-04-06T01:00:44.539Z,4.60
2018-04-06T01:03:18.058Z,5.50
2018-04-06T01:05:46.126Z,4.87
2018-04-06T01:08:14.140Z,5.18
2018-04-06T01:10:50.633Z,3.75
2018-04-06T01:13:21.073Z,3.47
2018-04-06T01:15:54.482Z,3.45
2018-04-06T01:18:38.184Z,5.12
2018-04-06T01:21:10.555Z,3.20
2018-04-06T01:23:39.432Z,4.57
2018-04-06T01:26:08.258Z,4.43
2018-04-06T01:28:44.563Z,5.53
2018-04-06T01:31:14.400Z,3.78
2018-04-06T01:33:59.752Z,3.75
2018-04-06T01:36:33.346Z,6.97
2018-04-06T01:39:03.750Z,4.00
2018-04-06T01:41:37.748Z,4.87
2018-04-06T01:44:05.790Z,2.85
2018-04-06T01:46:36.198Z,3.65
2018-04-06T01:49:04.232Z,3.15
2018-04-06T01:51:32.248Z,4.30
2018-04-06T01:54:00.298Z,4.82
2018-04-06T01:56:28.308Z,4.40
2018-04-06T01:58:56.348Z,3.53
2018-04-06T02:01:24.400Z,2.90
2018-04-06T02:03:52.474Z,4.75
2018-04-06T02:06:20.543Z,4.18
2018-04-06T02:08:53.771Z,5.07
2018-04-06T02:11:21.817Z,4.57
2018-04-06T02:13:49.832Z,6.47
2018-04-06T02:16:17.835Z,3.60
2018-04-06T02:18:45.853Z,3.62
2018-04-06T02:21:13.866Z,5.22
2018-04-06T02:23:41.902Z,3.57
2018-04-06T02:26:09.946Z,3.53
2018-04-06T02:28:37.953Z,3.67
2018-04-06T02:31:05.965Z,4.00
2018-04-06T02:33:33.997Z,4.95
2018-04-06T02:36:02.091Z,5.75
2018-04-06T02:38:30.082Z,4.30
2018-04-06T02:40:58.463Z,4.18
2018-04-06T02:43:26.509Z,2.97
2018-04-06T02:45:54.513Z,3.62
2018-04-06T02:48:22.611Z,3.03
2018-04-06T02:50:50.614Z,4.62
2018-04-06T02:53:19.394Z,5.75
2018-04-06T02:55:48.922Z,4.00
2018-04-06T02:58:16.943Z,3.45
2018-04-06T03:00:45.055Z,4.45
2018-04-06T03:03:13.071Z,3.75
2018-04-06T03:05:41.088Z,3.33
2018-04-06T03:08:09.111Z,3.33
2018-04-06T03:10:37.110Z,3.58
2018-04-06T03:13:05.147Z,4.00
2018-04-06T03:15:33.167Z,4.00
2018-04-06T03:18:01.185Z,2.60
2018-04-06T03:20:29.235Z,3.45
2018-04-06T03:22:57.233Z,2.63
2018-04-06T03:25:25.283Z,4.07
2018-04-06T03:27:54.066Z,4.50
2018-04-06T03:30:22.585Z,4.40
2018-04-06T03:32:52.014Z,3.53
2018-04-06T03:35:20.289Z,4.63
2018-04-06T03:37:48.325Z,4.13
2018-04-06T03:40:16.326Z,3.22
2018-04-06T03:42:44.360Z,3.90
2018-04-06T03:45:12.368Z,4.03
2018-04-06T03:47:40.395Z,4.53
2018-04-06T03:50:08.431Z,2.80
2018-04-06T03:52:36.445Z,4.22
2018-04-06T03:55:04.492Z,3.37
2018-04-06T03:57:32.530Z,3.40
2018-04-06T04:00:00.545Z,4.07
2018-04-06T04:02:28.605Z,5.35
2018-04-06T04:04:56.580Z,6.30
2018-04-06T04:07:24.616Z,5.47
2018-04-06T04:09:52.644Z,7.18
2018-04-06T04:12:21.449Z,6.18
2018-04-06T04:14:49.447Z,3.20
2018-04-06T04:17:17.492Z,4.28
2018-04-06T04:19:45.570Z,5.00
2018-04-06T04:22:13.572Z,3.40
2018-04-06T04:24:41.593Z,4.50
2018-04-06T04:27:09.599Z,4.07
2018-04-06T04:29:37.651Z,4.32
2018-04-06T04:32:05.687Z,5.40
2018-04-06T04:34:33.711Z,3.97
2018-04-06T04:37:01.719Z,2.67
2018-04-06T04:39:29.741Z,5.00
2018-04-06T04:41:57.738Z,3.67
2018-04-06T04:44:25.803Z,4.70
2018-04-06T04:46:53.855Z,4.75
2018-04-06T04:49:21.895Z,6.05
2018-04-06T04:51:49.924Z,3.85
2018-04-06T04:54:17.948Z,6.03
2018-04-06T04:56:45.984Z,3.42
2018-04-06T04:59:14.001Z,3.35
2018-04-06T05:01:42.011Z,3.30
2018-04-06T05:04:10.016Z,2.67
2018-04-06T05:06:38.041Z,3.08
2018-04-06T05:09:07.307Z,4.35
2018-04-06T05:11:35.334Z,2.72
2018-04-06T05:14:03.356Z,2.70
2018-04-06T05:16:31.391Z,3.65
2018-04-06T05:18:59.395Z,1.92
2018-04-06T05:21:27.446Z,2.67
2018-04-06T05:23:55.481Z,2.10
2018-04-06T05:26:23.508Z,2.78
2018-04-06T05:28:51.510Z,2.28
2018-04-06T05:31:19.568Z,13.80
2018-04-06T05:33:47.647Z,8.40
2018-04-06T05:36:15.664Z,8.32
2018-04-06T05:38:43.741Z,6.03
2018-04-06T05:41:11.722Z,8.10
2018-04-06T05:43:39.741Z,8.07
2018-04-06T05:46:07.957Z,6.28
2018-04-06T05:48:35.976Z,6.87
2018-04-06T05:51:04.038Z,7.22
2018-04-06T05:53:32.069Z,8.25
2018-04-06T05:56:00.864Z,5.55
2018-04-06T05:58:28.917Z,5.40
2018-04-06T06:00:56.951Z,3.95
2018-04-06T06:03:24.978Z,6.22
2018-04-06T06:05:53.001Z,5.55
2018-04-06T06:08:21.050Z,5.10
2018-04-06T06:10:49.099Z,6.85
2018-04-06T06:13:17.137Z,4.03
2018-04-06T06:15:45.155Z,5.22
2018-04-06T06:18:13.209Z,5.87
2018-04-06T06:20:41.479Z,4.60
2018-04-06T06:23:09.582Z,8.27
2018-04-06T06:25:37.628Z,5.62
2018-04-06T06:28:06.420Z,5.45
2018-04-06T06:30:34.425Z,8.70
2018-04-06T06:33:02.453Z,10.55
2018-04-06T06:35:30.557Z,9.30
2018-04-06T06:37:58.815Z,10.70
2018-04-06T06:40:26.812Z,10.88
2018-04-06T06:42:55.037Z,6.22
2018-04-06T06:45:23.078Z,9.68
2018-04-06T06:47:51.164Z,10.50
2018-04-06T06:50:19.176Z,7.87
2018-04-06T06:52:47.207Z,7.35
2018-04-06T06:55:15.218Z,8.82
2018-04-06T06:57:43.350Z,6.57
2018-04-06T07:00:11.399Z,9.57
2018-04-06T07:02:39.430Z,6.18
2018-04-06T07:05:08.237Z,8.73
2018-04-06T07:07:36.267Z,6.43
2018-04-06T07:10:04.300Z,5.90
2018-04-06T07:12:32.352Z,10.35
2018-04-06T07:15:00.339Z,8.98
2018-04-06T07:17:28.360Z,7.57
2018-04-06T07:19:56.392Z,8.07
2018-04-06T07:22:24.412Z,6.25
2018-04-06T07:24:53.196Z,7.72
2018-04-06T07:27:21.214Z,7.50
2018-04-06T07:29:49.222Z,8.05
2018-04-06T07:32:17.254Z,7.12
2018-04-06T07:34:45.306Z,6.47
2018-04-06T07:37:14.080Z,5.95
2018-04-06T07:39:42.116Z,5.20
2018-04-06T07:42:10.179Z,6.22
2018-04-06T07:44:38.190Z,7.03
2018-04-06T07:47:06.209Z,6.62
2018-04-06T07:49:34.221Z,6.87
2018-04-06T07:52:02.235Z,9.52
2018-04-06T07:54:30.280Z,6.62
2018-04-06T07:56:59.159Z,7.43
2018-04-06T07:59:27.144Z,7.22
2018-04-06T08:01:55.141Z,7.82
2018-04-06T08:04:23.174Z,9.07
2018-04-06T08:06:51.238Z,8.25
2018-04-06T08:09:19.251Z,9.02
2018-04-06T08:11:47.277Z,5.72
2018-04-06T08:14:15.311Z,5.37
2018-04-06T08:16:43.312Z,5.25
2018-04-06T08:19:11.347Z,4.80
2018-04-06T08:21:39.369Z,8.05
2018-04-06T08:24:07.387Z,6.32
2018-04-06T08:26:35.432Z,6.55
2018-04-06T08:29:04.191Z,5.70
2018-04-06T08:31:32.243Z,6.50
2018-04-06T08:34:00.240Z,5.93
2018-04-06T08:36:28.246Z,5.60
2018-04-06T08:38:56.278Z,7.05
2018-04-06T08:41:24.304Z,6.70
2018-04-06T08:43:52.344Z,5.15
2018-04-06T08:46:20.340Z,5.65
2018-04-06T08:48:48.813Z,6.18
2018-04-06T08:51:16.833Z,4.95
2018-04-06T08:53:44.871Z,6.03
2018-04-06T08:56:12.904Z,8.25
2018-04-06T08:58:40.914Z,4.32
2018-04-06T09:01:08.941Z,5.28
2018-04-06T09:03:36.958Z,4.00
2018-04-06T09:06:04.986Z,5.40
2018-04-06T09:08:33.820Z,4.53
2018-04-06T09:11:01.865Z,5.60
2018-04-06T09:13:30.223Z,4.28
2018-04-06T09:15:58.230Z,4.75
2018-04-06T09:18:26.264Z,6.15
2018-04-06T09:20:54.292Z,5.00
2018-04-06T09:23:23.071Z,6.60
2018-04-06T09:25:51.144Z,4.50
2018-04-06T09:28:19.155Z,6.12
2018-04-06T09:30:47.168Z,4.30
2018-04-06T09:33:15.257Z,5.35
2018-04-06T09:35:43.316Z,4.87
2018-04-06T09:38:11.332Z,3.55
2018-04-06T09:40:39.370Z,4.20
2018-04-06T09:43:07.387Z,3.90
2018-04-06T09:45:35.396Z,5.03
2018-04-06T09:48:03.391Z,5.93
2018-04-06T09:50:31.405Z,4.53
2018-04-06T09:52:59.460Z,5.00
2018-04-06T09:55:27.545Z,6.87
2018-04-06T09:57:55.535Z,5.10
2018-04-06T10:00:29.672Z,5.00
2018-04-06T10:02:58.205Z,4.20
2018-04-06T10:05:26.933Z,5.28
2018-04-06T10:07:54.957Z,6.40
2018-04-06T10:10:22.961Z,5.20
2018-04-06T10:12:50.987Z,4.85
2018-04-06T10:15:19.011Z,3.83
2018-04-06T10:17:47.129Z,6.55
2018-04-06T10:20:15.155Z,5.68
2018-04-06T10:22:43.154Z,6.25
2018-04-06T10:25:11.190Z,7.07
2018-04-06T10:27:39.204Z,6.03
2018-04-06T10:30:07.266Z,6.60
2018-04-06T10:32:35.278Z,6.82
2018-04-06T10:35:03.343Z,14.73
2018-04-06T10:37:31.366Z,8.13
2018-04-06T10:39:59.382Z,7.87
2018-04-06T10:42:27.404Z,12.10
2018-04-06T10:44:56.199Z,7.15
2018-04-06T10:47:24.224Z,6.43
2018-04-06T10:49:52.238Z,6.95
2018-04-06T10:52:20.296Z,6.95
2018-04-06T10:54:48.322Z,6.50
2018-04-06T10:57:16.364Z,8.48
2018-04-06T10:59:44.378Z,6.68
2018-04-06T11:02:12.398Z,6.90
2018-04-06T11:04:40.449Z,8.93
2018-04-06T11:07:08.471Z,7.00
2018-04-06T11:09:36.488Z,8.35
2018-04-06T11:12:05.279Z,7.12
2018-04-06T11:14:33.301Z,9.30
2018-04-06T11:17:01.298Z,9.35
2018-04-06T11:19:29.357Z,8.32
2018-04-06T11:21:57.356Z,7.60
2018-04-06T11:24:25.405Z,8.85
2018-04-06T11:26:53.439Z,9.27
2018-04-06T11:29:21.491Z,9.15
2018-04-06T11:31:49.554Z,9.70
2018-04-06T11:34:17.571Z,10.52
2018-04-06T11:36:45.597Z,9.88
2018-04-06T11:39:13.607Z,8.50
2018-04-06T11:41:41.645Z,9.20
2018-04-06T11:44:09.709Z,8.85
2018-04-06T11:46:37.721Z,12.35
2018-04-06T11:49:05.736Z,11.18
2018-04-06T11:51:33.813Z,10.23
2018-04-06T11:54:01.970Z,9.98
2018-04-06T11:56:29.991Z,9.55
2018-04-06T11:58:57.990Z,9.82
2018-04-06T12:01:26.025Z,9.50
2018-04-06T12:03:54.034Z,9.75
2018-04-06T12:06:22.082Z,11.25
2018-04-06T12:08:50.173Z,11.32
2018-04-06T12:11:18.368Z,9.65
2018-04-06T12:13:46.425Z,9.85
2018-04-06T12:16:14.426Z,8.90
2018-04-06T12:18:42.496Z,7.22
2018-04-06T12:21:12.028Z,7.80
2018-04-06T12:23:40.084Z,7.85
2018-04-06T12:26:08.108Z,10.18
2018-04-06T12:28:36.135Z,7.85
2018-04-06T12:31:04.139Z,8.85
2018-04-06T12:33:32.594Z,7.40
2018-04-06T12:36:01.554Z,7.32
2018-04-06T12:38:29.580Z,7.50
2018-04-06T12:40:57.599Z,7.40
2018-04-06T12:43:25.652Z,11.50
2018-04-06T12:45:53.735Z,10.73
2018-04-06T12:48:21.752Z,6.25
2018-04-06T12:50:50.511Z,6.32
2018-04-06T12:53:18.557Z,9.75
2018-04-06T12:55:46.582Z,9.15
2018-04-06T12:58:15.389Z,8.25
2018-04-06T13:00:43.412Z,8.90
2018-04-06T13:03:11.448Z,8.02
2018-04-06T13:05:39.499Z,7.95
2018-04-06T13:08:07.517Z,9.90
2018-04-06T13:10:35.545Z,7.20
2018-04-06T13:13:03.593Z,7.50
2018-04-06T13:15:31.604Z,7.90
2018-04-06T13:17:59.613Z,7.80
2018-04-06T13:20:27.617Z,8.02
2018-04-06T13:22:55.690Z,9.32
2018-04-06T13:25:23.705Z,9.20
2018-04-06T13:27:51.713Z,9.75
2018-04-06T13:30:19.747Z,7.62
2018-04-06T13:32:47.749Z,12.13
2018-04-06T13:35:15.789Z,9.68
2018-04-06T13:37:43.811Z,9.50
2018-04-06T13:40:11.855Z,5.03
2018-04-06T13:42:39.851Z,6.62
2018-04-06T13:45:07.879Z,7.07
2018-04-06T13:47:35.954Z,8.30
2018-04-06T13:50:03.983Z,11.88
2018-04-06T13:52:32.005Z,9.98
2018-04-06T13:55:00.059Z,11.23
2018-04-06T13:57:28.107Z,11.98
2018-04-06T13:59:56.147Z,10.98
2018-04-06T14:02:24.182Z,9.32
2018-04-06T14:04:52.195Z,8.85
2018-04-06T14:07:20.527Z,5.12
2018-04-06T14:09:48.547Z,8.07
2018-04-06T14:12:16.570Z,7.43
2018-04-06T14:14:44.576Z,8.02
2018-04-06T14:17:12.587Z,12.63
2018-04-06T14:19:40.652Z,8.15
2018-04-06T14:22:08.655Z,8.38
2018-04-06T14:24:36.752Z,9.80
2018-04-06T14:27:06.014Z,14.23
2018-04-06T14:29:34.040Z,10.15
2018-04-06T14:32:02.099Z,9.95
2018-04-06T14:34:30.975Z,7.22
2018-04-06T14:36:59.014Z,9.10
2018-04-06T14:39:27.035Z,9.77
2018-04-06T14:41:55.036Z,13.52
2018-04-06T14:44:23.119Z,19.17
2018-04-06T14:46:51.130Z,30.12
2018-04-06T14:49:19.177Z,34.55
2018-04-06T14:51:47.182Z,14.27
2018-04-06T14:54:15.234Z,14.02
2018-04-06T14:56:43.303Z,12.65
2018-04-06T14:59:11.598Z,31.15
2018-04-06T15:01:39.640Z,23.85
2018-04-06T15:04:07.651Z,28.25
2018-04-06T15:06:35.664Z,31.65
2018-04-06T15:09:03.740Z,29.27
2018-04-06T15:11:31.776Z,23.35
2018-04-06T15:13:59.775Z,21.58
2018-04-06T15:16:27.845Z,22.23
2018-04-06T15:18:55.931Z,19.05
2018-04-06T15:21:24.039Z,21.65
2018-04-06T15:23:52.066Z,16.27
2018-04-06T15:26:20.111Z,17.67
2018-04-06T15:28:48.897Z,18.55
2018-04-06T15:31:16.943Z,38.88
2018-04-06T15:33:45.010Z,36.65
2018-04-06T15:36:13.049Z,28.90
2018-04-06T15:38:41.083Z,28.58
2018-04-06T15:41:09.190Z,25.40
2018-04-06T15:43:37.503Z,25.15
2018-04-06T15:46:05.553Z,24.90
2018-04-06T15:48:33.603Z,26.77
2018-04-06T15:51:01.631Z,21.08
2018-04-06T15:53:29.661Z,22.02
2018-04-06T15:55:57.687Z,21.67
2018-04-06T15:58:26.557Z,19.92
2018-04-06T16:00:54.592Z,20.52
2018-04-06T16:03:22.638Z,17.55
2018-04-06T16:05:50.665Z,20.33
2018-04-06T16:08:18.723Z,19.48
2018-04-06T16:10:46.758Z,19.12
2018-04-06T16:13:14.791Z,21.52
2018-04-06T16:15:43.762Z,20.20
2018-04-06T16:18:11.784Z,43.55
2018-04-06T16:20:40.576Z,21.92
2018-04-06T16:23:08.614Z,21.67
2018-04-06T16:25:36.663Z,32.75
2018-04-06T16:28:04.687Z,41.30
2018-04-06T16:30:32.700Z,23.70
2018-04-06T16:33:00.952Z,23.55
2018-04-06T16:35:29.018Z,15.25
2018-04-06T16:37:57.020Z,17.48
2018-04-06T16:40:25.038Z,18.25
2018-04-06T16:42:53.069Z,17.08
2018-04-06T16:45:21.096Z,22.65
2018-04-06T16:47:49.157Z,36.78
2018-04-06T16:50:17.182Z,38.60
2018-04-06T16:52:45.198Z,32.35
2018-04-06T16:55:14.009Z,35.22
2018-04-06T16:57:42.020Z,24.73
2018-04-06T17:00:10.106Z,20.67
2018-04-06T17:02:39.657Z,21.58
2018-04-06T17:05:07.673Z,24.20
2018-04-06T17:07:35.737Z,27.45
2018-04-06T17:10:03.792Z,21.37
2018-04-06T17:12:31.854Z,20.12
2018-04-06T17:15:00.633Z,19.00
2018-04-06T17:17:28.671Z,19.17
2018-04-06T17:19:56.672Z,18.52
2018-04-06T17:22:25.477Z,17.87
2018-04-06T17:24:53.514Z,16.80
2018-04-06T17:27:21.550Z,17.45
2018-04-06T17:29:49.574Z,16.83
2018-04-06T17:32:17.658Z,16.62
2018-04-06T17:34:45.652Z,16.00
2018-04-06T17:37:13.695Z,14.27
2018-04-06T17:39:41.707Z,14.95
2018-04-06T17:42:09.722Z,15.20
2018-04-06T17:44:37.790Z,15.98
2018-04-06T17:47:06.614Z,13.57
2018-04-06T17:49:34.679Z,14.27
2018-04-06T17:52:02.711Z,13.40
2018-04-06T17:54:30.730Z,14.38
2018-04-06T17:56:58.755Z,14.20
2018-04-06T17:59:26.780Z,13.02
2018-04-06T18:01:54.825Z,13.27
2018-04-06T18:04:22.836Z,14.07
2018-04-06T18:06:50.872Z,13.38
2018-04-06T18:09:19.148Z,12.43
2018-04-06T18:11:47.149Z,13.90
2018-04-06T18:14:15.221Z,11.10
2018-04-06T18:16:43.237Z,10.95
2018-04-06T18:19:11.242Z,10.98
2018-04-06T18:21:40.050Z,13.50
2018-04-06T18:24:08.065Z,11.20
2018-04-06T18:26:36.099Z,11.55
2018-04-06T18:29:04.168Z,8.70
2018-04-06T18:31:32.215Z,10.68
2018-04-06T18:34:00.993Z,9.50
2018-04-06T18:36:29.039Z,8.80
2018-04-06T18:38:57.163Z,9.30
2018-04-06T18:41:25.184Z,11.20
2018-04-06T18:43:53.215Z,9.20
2018-04-06T18:46:21.229Z,10.75
2018-04-06T18:48:49.268Z,9.20
2018-04-06T18:51:17.504Z,8.73
2018-04-06T18:53:45.531Z,9.85
2018-04-06T18:56:13.547Z,8.85
2018-04-06T18:58:41.555Z,9.68
2018-04-06T19:01:09.615Z,7.82
2018-04-06T19:03:37.630Z,8.77
2018-04-06T19:06:05.677Z,8.43
2018-04-06T19:08:33.719Z,8.02
2018-04-06T19:11:01.842Z,7.53
2018-04-06T19:13:29.930Z,7.20
2018-04-06T19:15:57.952Z,7.03
2018-04-06T19:18:26.068Z,9.10
2018-04-06T19:20:54.118Z,7.15
2018-04-06T19:23:22.133Z,8.32
2018-04-06T19:25:50.141Z,6.62
2018-04-06T19:28:18.155Z,6.20
2018-04-06T19:30:46.255Z,8.15
2018-04-06T19:33:14.357Z,7.47
2018-04-06T19:35:42.359Z,6.60
2018-04-06T19:38:10.390Z,6.40
2018-04-06T19:40:38.431Z,7.28
2018-04-06T19:43:06.461Z,6.37
2018-04-06T19:45:34.502Z,6.30
2018-04-06T19:48:02.533Z,6.45
2018-04-06T19:50:30.578Z,5.47
2018-04-06T19:52:58.600Z,10.60
2018-04-06T19:55:26.629Z,7.57
2018-04-06T19:57:54.638Z,6.12
2018-04-06T20:00:23.435Z,5.90
2018-04-06T20:02:51.477Z,7.00
2018-04-06T20:05:19.480Z,5.35
2018-04-06T20:07:47.502Z,5.40
2018-04-06T20:10:15.531Z,7.00
2018-04-06T20:12:43.560Z,4.78
2018-04-06T20:15:11.608Z,5.32
2018-04-06T20:17:39.639Z,6.30
2018-04-06T20:20:07.867Z,8.50
2018-04-06T20:22:35.897Z,7.75
2018-04-06T20:25:04.259Z,7.45
2018-04-06T20:27:32.332Z,5.43
2018-04-06T20:30:00.405Z,6.28
2018-04-06T20:32:28.420Z,7.28
2018-04-06T20:34:56.497Z,5.20
2018-04-06T20:37:24.559Z,4.87
2018-04-06T20:39:52.625Z,6.32
2018-04-06T20:42:20.622Z,4.90
2018-04-06T20:44:48.646Z,5.03
2018-04-06T20:47:17.439Z,7.35
2018-04-06T20:49:45.466Z,6.62
2018-04-06T20:52:13.495Z,4.65
2018-04-06T20:54:41.512Z,5.53
2018-04-06T20:57:09.551Z,6.62
2018-04-06T20:59:37.577Z,5.28
2018-04-06T21:02:05.588Z,4.20
2018-04-06T21:04:33.668Z,4.75
2018-04-06T21:07:01.706Z,4.45
2018-04-06T21:09:29.739Z,4.15
2018-04-06T21:11:58.541Z,4.85
2018-04-06T21:14:26.581Z,4.68
2018-04-06T21:16:54.622Z,6.43
2018-04-06T21:19:22.626Z,4.07
2018-04-06T21:21:50.634Z,3.90
2018-04-06T21:24:19.419Z,4.05
2018-04-06T21:26:47.455Z,4.90
2018-04-06T21:29:15.544Z,4.90
2018-04-06T21:31:43.552Z,4.75
2018-04-06T21:34:11.546Z,4.43
2018-04-06T21:36:39.592Z,4.22
2018-04-06T21:39:07.654Z,3.92
2018-04-06T21:41:35.700Z,4.25
2018-04-06T21:44:03.743Z,4.07
2018-04-06T21:46:31.763Z,5.57
2018-04-06T21:49:00.540Z,4.18
2018-04-06T21:51:28.559Z,3.87
2018-04-06T21:53:56.578Z,5.05
2018-04-06T21:56:24.604Z,4.60
2018-04-06T21:58:52.613Z,4.15
2018-04-06T22:01:20.658Z,5.60
2018-04-06T22:03:48.726Z,4.60
2018-04-06T22:06:16.736Z,4.07
2018-04-06T22:08:44.744Z,5.03
2018-04-06T22:11:12.793Z,3.58
2018-04-06T22:13:40.816Z,4.57
2018-04-06T22:16:09.592Z,3.67
2018-04-06T22:18:37.767Z,3.92
2018-04-06T22:21:05.784Z,3.75
2018-04-06T22:23:33.785Z,4.03
2018-04-06T22:26:01.852Z,4.05
2018-04-06T22:28:29.877Z,3.60
2018-04-06T22:30:57.879Z,3.62
2018-04-06T22:33:25.921Z,5.20
2018-04-06T22:35:53.963Z,3.97
2018-04-06T22:38:22.366Z,3.78
2018-04-06T22:40:50.428Z,3.50
2018-04-06T22:43:18.441Z,3.85
2018-04-06T22:45:46.485Z,3.15
2018-04-06T22:48:14.506Z,3.97
2018-04-06T22:50:42.540Z,3.67
2018-04-06T22:53:10.569Z,3.87
2018-04-06T22:55:38.608Z,3.75
2018-04-06T22:58:07.398Z,3.60
2018-04-06T23:00:35.443Z,3.95
2018-04-06T23:03:03.470Z,3.72
2018-04-06T23:05:31.482Z,3.33
2018-04-06T23:08:00.240Z,3.25
2018-04-06T23:10:28.265Z,3.78
2018-04-06T23:12:57.046Z,3.72
2018-04-06T23:15:25.088Z,3.30
2018-04-06T23:17:53.103Z,3.60
2018-04-06T23:20:21.108Z,3.15
2018-04-06T23:22:49.564Z,3.65
2018-04-06T23:25:17.586Z,3.65
2018-04-06T23:27:46.386Z,3.00
2018-04-06T23:30:14.419Z,4.40
2018-04-06T23:32:42.477Z,3.30
2018-04-06T23:35:10.502Z,3.12
2018-04-06T23:37:38.526Z,3.33
2018-04-06T23:40:07.322Z,4.55
2018-04-06T23:42:35.358Z,2.90
2018-04-06T23:45:03.377Z,2.83
2018-04-06T23:47:31.403Z,2.92
2018-04-06T23:49:59.422Z,3.22
2018-04-06T23:52:27.487Z,3.17
2018-04-06T23:54:55.502Z,2.90
2018-04-06T23:57:23.509Z,3.78
2018-04-06T23:59:51.527Z,3.33
